Pagina principale
METAR-TAF:

METAR-TAF

Aeroporti :

Aeroporto di Bari-Palese

Bari, Italia

latitudine: 41-08N, longitudine: 016-47E, altezza: 34 m

Osservazione

Il bollettino è stato emesso 25 minuti fa, alle 02:20 UTC
Vento 5 kt da sud-ovest
Temperature 14°C
Umidità 94%
Pressione 1015 hPa
Visibilità: 5000 m
Poco nuvoloso ad un'altezza di 1000 ft
Nubi sparse ad un'altezza di 2000 ft
foschia

METAR: LIBD 190220Z 23005KT 5000 BR FEW010 SCT020 14/13 Q1015

Ora: 04:45 (02:45 UTC)

Previsione

Il bollettino è stato emesso 3 ore e 45 minuti fa, alle 23:00 UTC
Previsione valida dal 19 alle 00 UTC al 19 alle 24 UTC
Vento 5 kt da direzioni variabili
Visibilità: 8000 m
Nubi sparse ad un'altezza di 3000 ft
Temporaneamente
dal 19 alle 00 UTC al 19 alle 06 UTC
Visibilità: 3000 m
foschia
Evoluzione graduale
dal 19 alle 08 UTC al 19 alle 10 UTC
Vento 10 kt da nord/nord-est

TAF: LIBD 182300Z 1900/1924 VRB05KT 8000 SCT030 TEMPO 1900/1906 3000 BR BECMG 1908/1910 02010KT

Osservazioni e previsioni meteorologiche di più di 4000 aeroporti (messaggi METAR e TAF).

Le stazioni disponibili sono rappresentate dai dischi gialli e rossi sulla carta.

Puntare il mouse per vedere il nome della stazione.

Clicca sopra per visualizzare le osservazioni e previsioni meteorologiche.

Per cambiare la mappa : fare clic sui pulsanti verdi con una croce nera per ingrandire, il pulsante verde con un trattino per diminuire, o sulla freccia verde per le mappe adiacenti.


METAR-TAF: